Time;durP1;ratioP1;P1;durP2;ratioP2;P2;SDS_P1;SDS_P2;PMS_P1;PMS_P2;Temp;Humidity;BMP_temperature;BMP_pressure;BME280_temperature;BME280_humidity;BME280_pressure;Samples;Min_cycle;Max_cycle;Signal;HPM_P1;HPM_P2
2024/01/11 00:00:30;;;;;;;20.60;11.00;;;;;;;-0.69;81.50;99750.55;79351;1301;3011557;-70
2024/01/11 00:02:58;;;;;;;20.00;9.70;;;;;;;-0.84;82.07;99758.27;78272;1298;3068681;-68
2024/01/11 00:05:25;;;;;;;25.10;11.30;;;;;;;-0.92;81.84;99759.37;79391;1298;3013754;-73
2024/01/11 00:07:52;;;;;;;21.20;10.20;;;;;;;-1.09;82.33;99748.67;79390;1301;3011931;-72
2024/01/11 00:10:20;;;;;;;18.20;9.90;;;;;;;-1.28;82.68;99746.44;78137;1301;3026954;-71
2024/01/11 00:12:46;;;;;;;20.60;11.40;;;;;;;-1.47;83.81;99743.13;79340;1301;3013314;-70
2024/01/11 00:15:13;;;;;;;21.40;11.10;;;;;;;-1.55;84.64;99738.38;79534;1301;3011776;-71
2024/01/11 00:17:41;;;;;;;23.20;11.60;;;;;;;-1.51;84.43;99741.95;78161;1301;3029064;-72
2024/01/11 00:20:07;;;;;;;16.60;8.00;;;;;;;-1.52;84.09;99733.71;79402;1300;3013261;-71
2024/01/11 00:22:34;;;;;;;16.60;9.10;;;;;;;-0.93;84.14;99732.70;79380;1301;3013118;-68
2024/01/11 00:25:02;;;;;;;23.10;11.10;;;;;;;-0.44;82.25;99728.77;78191;1298;3025852;-67
2024/01/11 00:27:30;;;;;;;18.30;10.60;;;;;;;-0.26;81.30;99723.21;79381;1297;3013467;-65
2024/01/11 00:29:57;;;;;;;21.30;10.70;;;;;;;-0.35;81.42;99721.42;79405;1298;3011833;-67
2024/01/11 00:32:25;;;;;;;18.70;10.30;;;;;;;-0.74;82.12;99721.02;78235;1297;3067478;-69
2024/01/11 00:34:52;;;;;;;19.90;9.30;;;;;;;-0.83;82.11;99717.33;79436;1297;3018897;-67
2024/01/11 00:37:19;;;;;;;23.30;12.10;;;;;;;-1.17;82.70;99712.29;79364;1297;3011633;-68
2024/01/11 00:39:47;;;;;;;20.20;11.60;;;;;;;-1.33;83.76;99707.62;78175;1298;3025931;-68
2024/01/11 00:42:15;;;;;;;21.90;10.90;;;;;;;-1.51;84.46;99693.67;79353;1297;3013247;-68
2024/01/11 00:44:41;;;;;;;23.50;11.30;;;;;;;-1.68;85.53;99692.42;79415;1301;3013672;-70
2024/01/11 00:47:10;;;;;;;20.60;9.80;;;;;;;-1.78;85.91;99686.31;78186;1298;3068249;-66
2024/01/11 00:49:37;;;;;;;18.40;9.40;;;;;;;-1.96;86.63;99678.88;79467;1297;3011662;-69
2024/01/11 00:52:04;;;;;;;22.10;10.60;;;;;;;-1.56;87.45;99661.05;79475;1298;3011567;-68
2024/01/11 00:54:32;;;;;;;15.80;7.70;;;;;;;-0.82;85.40;99660.54;78194;1298;3051671;-68
2024/01/11 00:56:59;;;;;;;19.00;10.90;;;;;;;-0.37;81.99;99658.63;79355;1297;3013511;-67
2024/01/11 00:59:25;;;;;;;19.00;10.90;;;;;;;-0.65;82.56;99659.99;79451;1298;3011396;-67
2024/01/11 01:01:53;;;;;;;18.60;10.50;;;;;;;-1.05;83.35;99655.80;78225;1298;3026192;-69
2024/01/11 01:04:20;;;;;;;17.80;10.40;;;;;;;-1.31;84.26;99645.73;79418;1298;3013745;-68
2024/01/11 01:06:46;;;;;;;18.60;11.40;;;;;;;-1.54;85.24;99634.42;79399;1297;3012515;-68
2024/01/11 01:09:14;;;;;;;20.80;10.70;;;;;;;-1.70;86.20;99632.84;78126;1299;3028068;-68
2024/01/11 01:11:41;;;;;;;18.60;10.40;;;;;;;-1.63;85.66;99621.79;79322;1300;3012936;-71
2024/01/11 01:14:08;;;;;;;15.80;7.40;;;;;;;-1.80;86.00;99621.58;79318;1303;3011696;-69
2024/01/11 01:16:35;;;;;;;15.40;8.20;;;;;;;-1.74;86.56;99612.60;78113;1298;3026316;-70
2024/01/11 01:19:02;;;;;;;15.40;8.80;;;;;;;-0.95;85.90;99608.90;79306;1298;3013537;-71
2024/01/11 01:21:30;;;;;;;13.90;8.30;;;;;;;-0.66;83.43;99597.04;79272;1303;3011669;-68
2024/01/11 01:23:58;;;;;;;17.60;9.40;;;;;;;-0.84;83.73;99580.42;78101;1302;3053711;-68
2024/01/11 01:26:24;;;;;;;15.20;8.70;;;;;;;-1.07;83.79;99573.46;79317;1299;3018224;-69
2024/01/11 01:28:51;;;;;;;14.60;8.40;;;;;;;-1.51;84.96;99563.62;79370;1301;3011556;-66
2024/01/11 01:31:19;;;;;;;15.90;7.60;;;;;;;-1.65;85.99;99555.16;78109;1298;3027617;-68
2024/01/11 01:33:45;;;;;;;17.80;9.10;;;;;;;-1.87;87.35;99557.77;79300;1298;3018415;-69
2024/01/11 01:36:12;;;;;;;15.30;8.20;;;;;;;-1.91;87.49;99554.89;79310;1301;3012771;-69
2024/01/11 01:38:40;;;;;;;13.80;7.10;;;;;;;-2.02;87.98;99555.82;78064;1298;3025680;-71
2024/01/11 01:41:06;;;;;;;16.80;8.50;;;;;;;-2.02;87.58;99548.44;79295;1299;3011602;-71
2024/01/11 01:43:32;;;;;;;10.80;4.60;;;;;;;-2.13;87.94;99540.80;79318;1300;3011435;-69
2024/01/11 01:46:00;;;;;;;14.20;7.10;;;;;;;-1.36;87.26;99535.41;78057;1298;3026018;-69
2024/01/11 01:48:27;;;;;;;15.60;6.90;;;;;;;-1.02;84.42;99526.30;79309;1299;3013984;-71
2024/01/11 01:50:53;;;;;;;13.50;7.70;;;;;;;-0.84;83.96;99524.19;79349;1298;3011710;-71
2024/01/11 01:53:21;;;;;;;15.00;7.40;;;;;;;-1.18;83.74;99515.32;77886;1298;3026407;-71
2024/01/11 01:55:48;;;;;;;14.90;7.50;;;;;;;-1.24;84.37;99516.93;79330;1304;3018160;-70
2024/01/11 01:58:15;;;;;;;13.80;7.20;;;;;;;-1.29;83.94;99511.14;79320;1303;3013564;-68
2024/01/11 02:00:44;;;;;;;12.20;7.30;;;;;;;-1.71;84.89;99502.15;77893;1298;3025597;-68
2024/01/11 02:03:11;;;;;;;13.70;7.10;;;;;;;-1.80;85.72;99491.93;79340;1300;3013359;-69
2024/01/11 02:05:37;;;;;;;15.30;8.70;;;;;;;-2.02;85.97;99497.28;79019;1303;3013441;-68
2024/01/11 02:08:08;;;;;;;6.50;4.20;;;;;;;-2.10;86.42;99500.45;78034;1298;3053175;-70
2024/01/11 02:10:35;;;;;;;11.90;5.60;;;;;;;-2.00;85.75;99490.41;79412;1298;3011656;-67
2024/01/11 02:13:05;;;;;;;13.00;6.10;;;;;;;-1.42;85.72;99477.77;78812;1298;3012064;-72
2024/01/11 02:15:31;;;;;;;10.30;5.70;;;;;;;-0.91;83.60;99469.91;79295;1304;3014165;-69
2024/01/11 02:17:58;;;;;;;15.50;7.10;;;;;;;-0.58;82.50;99463.62;79429;1298;3011676;-70
2024/01/11 02:20:25;;;;;;;14.80;6.50;;;;;;;-1.02;82.20;99462.68;78138;1302;3056584;-71
2024/01/11 02:22:53;;;;;;;13.50;7.10;;;;;;;-1.14;82.56;99456.81;79321;1299;3013198;-66
2024/01/11 02:25:20;;;;;;;15.80;6.90;;;;;;;-1.58;83.31;99442.91;79322;1298;3011705;-70
2024/01/11 02:27:48;;;;;;;15.00;7.10;;;;;;;-2.22;85.77;99447.00;78130;1303;3053803;-70
2024/01/11 02:30:15;;;;;;;11.80;6.60;;;;;;;-2.33;87.76;99436.63;79338;1301;3013418;-69
2024/01/11 02:32:48;;;;;;;16.40;8.30;;;;;;;-2.38;87.47;99426.21;79340;1298;3012852;-68
2024/01/11 02:35:16;;;;;;;15.00;6.40;;;;;;;-2.37;87.69;99406.81;78098;1298;3056516;-69
2024/01/11 02:37:43;;;;;;;10.70;4.90;;;;;;;-2.24;87.41;99402.24;79345;1298;3012847;-69
2024/01/11 02:40:10;;;;;;;12.10;6.50;;;;;;;-1.78;86.43;99396.08;79384;1301;3012990;-69
2024/01/11 02:42:38;;;;;;;10.60;6.00;;;;;;;-1.17;84.43;99400.13;78130;1301;3025865;-69
2024/01/11 02:45:05;;;;;;;11.10;6.70;;;;;;;-0.84;82.70;99391.91;79391;1301;3013504;-67
2024/01/11 02:47:38;;;;;;;11.70;6.10;;;;;;;-1.23;82.44;99391.96;78868;1301;3011690;-69
2024/01/11 02:50:07;;;;;;;12.50;6.70;;;;;;;-1.54;83.38;99390.30;79476;1298;3012978;-70
2024/01/11 02:52:35;;;;;;;12.80;6.40;;;;;;;-1.87;84.97;99400.30;78167;1301;3026189;-68
2024/01/11 02:55:01;;;;;;;14.60;7.00;;;;;;;-1.89;84.99;99387.45;79395;1298;3012881;-68
2024/01/11 02:57:28;;;;;;;14.50;7.20;;;;;;;-1.89;85.41;99386.94;79313;1298;3011899;-71
2024/01/11 02:59:56;;;;;;;12.20;6.30;;;;;;;-2.00;85.33;99395.82;78133;1301;3026162;-69
2024/01/11 03:02:22;;;;;;;12.80;6.90;;;;;;;-2.19;85.14;99396.70;79399;1301;3013198;-68
2024/01/11 03:04:49;;;;;;;12.70;6.10;;;;;;;-2.41;86.99;99387.46;79310;1301;3011580;-69
2024/01/11 03:07:17;;;;;;;12.70;6.80;;;;;;;-1.69;86.73;99381.55;78139;1298;3026022;-67
2024/01/11 03:09:43;;;;;;;11.40;6.30;;;;;;;-1.15;83.92;99380.84;79274;1298;3012755;-69
2024/01/11 03:12:10;;;;;;;11.90;6.80;;;;;;;-1.34;82.52;99386.97;79306;1298;3012919;-68
2024/01/11 03:14:37;;;;;;;10.70;6.00;;;;;;;-1.45;82.87;99379.02;78103;1301;3028743;-69
2024/01/11 03:17:05;;;;;;;8.40;5.20;;;;;;;-1.44;82.36;99383.99;79369;1299;3018990;-68
2024/01/11 03:19:31;;;;;;;13.00;6.60;;;;;;;-1.87;83.37;99370.78;79286;1302;3011729;-67
2024/01/11 03:22:03;;;;;;;13.00;7.00;;;;;;;-2.01;84.23;99361.30;78135;1299;3028630;-67
2024/01/11 03:24:29;;;;;;;14.80;7.60;;;;;;;-2.15;84.94;99354.95;79318;1298;3013439;-68
2024/01/11 03:26:57;;;;;;;13.80;7.30;;;;;;;-2.21;84.97;99350.03;78071;1298;3025935;-68
2024/01/11 03:29:23;;;;;;;15.00;7.60;;;;;;;-2.34;85.30;99349.65;79415;1304;3013833;-67
2024/01/11 03:31:50;;;;;;;8.40;4.70;;;;;;;-2.25;85.15;99349.22;79298;1300;3011872;-68
2024/01/11 03:34:18;;;;;;;12.20;5.50;;;;;;;-1.63;83.77;99338.38;78136;1302;3026671;-68
2024/01/11 03:36:44;;;;;;;11.40;6.20;;;;;;;-1.10;82.15;99342.61;79277;1298;3013005;-66
2024/01/11 03:39:11;;;;;;;10.60;5.90;;;;;;;-1.53;81.93;99331.02;79296;1298;3011544;-68
2024/01/11 03:41:45;;;;;;;11.40;6.30;;;;;;;-1.60;82.21;99327.67;78153;1304;3026704;-69
2024/01/11 03:44:12;;;;;;;14.10;6.60;;;;;;;-2.10;83.73;99299.98;79277;1298;3011660;-69
2024/01/11 03:46:40;;;;;;;17.80;7.40;;;;;;;-2.19;83.67;99287.02;78153;1304;3052269;-70
2024/01/11 03:49:07;;;;;;;14.50;7.10;;;;;;;-2.43;84.75;99281.47;79413;1302;3011748;-69
2024/01/11 03:51:34;;;;;;;9.40;4.90;;;;;;;-2.51;85.26;99271.42;79419;1301;3011839;-70
2024/01/11 03:54:02;;;;;;;9.80;4.90;;;;;;;-2.59;85.49;99279.58;78221;1301;3056432;-67
2024/01/11 03:56:29;;;;;;;10.40;5.20;;;;;;;-2.65;85.98;99277.91;79280;1298;3021193;-67
2024/01/11 03:58:56;;;;;;;7.00;4.40;;;;;;;-2.66;86.12;99275.02;79334;1303;3011604;-67
2024/01/11 04:01:24;;;;;;;11.90;4.20;;;;;;;-2.61;86.35;99276.69;78070;1302;3025683;-67
2024/01/11 04:03:51;;;;;;;9.50;3.90;;;;;;;-2.25;85.81;99283.50;79331;1298;3013569;-68
2024/01/11 04:06:21;;;;;;;8.70;4.30;;;;;;;-1.63;83.59;99271.72;79323;1298;3011610;-68
2024/01/11 04:08:49;;;;;;;8.60;3.90;;;;;;;-1.45;82.12;99277.98;78053;1298;3055757;-66
2024/01/11 04:11:16;;;;;;;8.50;4.80;;;;;;;-1.60;81.56;99268.08;79362;1298;3019447;-67
2024/01/11 04:13:43;;;;;;;14.70;6.80;;;;;;;-2.13;83.06;99256.77;79351;1298;3011666;-67
2024/01/11 04:16:11;;;;;;;13.50;5.50;;;;;;;-2.26;84.09;99254.68;78106;1304;3028230;-67
2024/01/11 04:18:39;;;;;;;5.80;3.20;;;;;;;-2.53;85.29;99245.38;79407;1304;3013499;-69
2024/01/11 04:21:05;;;;;;;8.80;4.70;;;;;;;-2.71;86.10;99235.45;79340;1303;3011642;-70
2024/01/11 04:23:33;;;;;;;8.00;4.20;;;;;;;-2.77;86.69;99233.11;78110;1301;3057004;-70
2024/01/11 04:26:00;;;;;;;8.70;4.30;;;;;;;-2.98;87.89;99230.41;79383;1303;3013090;-68
2024/01/11 04:28:26;;;;;;;8.80;3.30;;;;;;;-2.78;88.19;99220.27;79415;1301;3011401;-68
2024/01/11 04:30:54;;;;;;;8.50;3.90;;;;;;;-2.39;87.88;99216.23;78174;1298;3026453;-68
2024/01/11 04:33:20;;;;;;;8.00;3.60;;;;;;;-1.96;86.39;99210.88;79507;1301;3013283;-68
2024/01/11 04:35:47;;;;;;;7.60;4.10;;;;;;;-2.01;85.68;99211.81;79335;1301;3011895;-69
2024/01/11 04:38:15;;;;;;;7.00;3.90;;;;;;;-2.13;85.61;99220.88;78084;1298;3025816;-67
2024/01/11 04:40:42;;;;;;;10.70;4.40;;;;;;;-2.34;86.49;99223.20;79434;1298;3012875;-68
2024/01/11 04:43:08;;;;;;;9.10;4.70;;;;;;;-2.49;86.02;99217.89;79268;1299;3011559;-69
2024/01/11 04:45:36;;;;;;;10.60;5.20;;;;;;;-2.47;86.91;99214.79;78102;1301;3025771;-67
2024/01/11 04:48:03;;;;;;;11.50;5.90;;;;;;;-2.56;86.50;99221.92;79423;1298;3013091;-69
2024/01/11 04:50:30;;;;;;;12.20;6.50;;;;;;;-2.75;87.42;99221.44;79393;1301;3013876;-73
2024/01/11 04:52:58;;;;;;;13.70;6.70;;;;;;;-2.64;87.35;99217.38;78447;1301;3026030;-68
2024/01/11 04:55:24;;;;;;;14.70;7.40;;;;;;;-2.34;86.73;99206.05;79414;1299;3013364;-70
2024/01/11 04:57:51;;;;;;;15.10;7.00;;;;;;;-2.00;85.83;99210.24;79506;1298;3011832;-68
2024/01/11 05:00:19;;;;;;;10.60;4.80;;;;;;;-1.83;84.54;99218.43;78184;1301;3026672;-68
2024/01/11 05:02:46;;;;;;;10.50;5.30;;;;;;;-2.13;84.70;99215.57;79416;1299;3011575;-68
2024/01/11 05:05:12;;;;;;;10.90;5.50;;;;;;;-2.19;84.84;99206.38;79480;1301;3011891;-68
2024/01/11 05:07:40;;;;;;;9.00;5.10;;;;;;;-2.68;86.30;99196.00;78136;1297;3026093;-67
2024/01/11 05:10:07;;;;;;;7.70;4.00;;;;;;;-2.70;86.87;99193.27;79380;1298;3018548;-68
2024/01/11 05:12:36;;;;;;;8.00;4.20;;;;;;;-2.79;87.95;99185.66;79328;1298;3013096;-69
2024/01/11 05:15:07;;;;;;;4.60;2.80;;;;;;;-3.01;92.86;99173.52;78130;1301;3053238;-70
2024/01/11 05:17:34;;;;;;;6.60;3.60;;;;;;;-2.64;89.45;99169.00;79450;1301;3013768;-70
2024/01/11 05:20:03;;;;;;;6.20;3.90;;;;;;;-2.40;87.31;99163.77;78806;1298;3011514;-67
2024/01/11 05:22:32;;;;;;;6.90;4.10;;;;;;;-2.15;86.27;99143.86;79388;1298;3013179;-75
2024/01/11 05:24:58;;;;;;;6.90;3.70;;;;;;;-2.48;86.37;99145.15;79398;1297;3012728;-71
2024/01/11 05:27:26;;;;;;;6.90;4.40;;;;;;;-2.51;87.58;99139.52;78140;1304;3053956;-71
2024/01/11 05:29:52;;;;;;;8.20;4.10;;;;;;;-2.81;87.74;99137.50;79403;1301;3012899;-71
2024/01/11 05:32:19;;;;;;;11.90;5.00;;;;;;;-3.05;87.95;99136.40;79182;1304;3013166;-73
2024/01/11 05:34:47;;;;;;;11.20;5.30;;;;;;;-3.04;88.00;99140.31;78250;1299;3026650;-73
2024/01/11 05:37:13;;;;;;;14.40;5.50;;;;;;;-3.43;89.32;99131.80;79398;1301;3018560;-69
2024/01/11 05:39:40;;;;;;;14.70;5.80;;;;;;;-3.41;90.33;99125.95;79376;1301;3011589;-73
2024/01/11 05:42:08;;;;;;;20.70;7.50;;;;;;;-2.99;90.45;99128.27;78100;1298;3028517;-71
2024/01/11 05:44:34;;;;;;;9.50;4.80;;;;;;;-2.78;88.42;99127.86;79480;1301;3013742;-71
2024/01/11 05:47:01;;;;;;;9.00;4.40;;;;;;;-2.72;88.27;99106.02;79410;1301;3013167;-69
2024/01/11 05:49:29;;;;;;;7.70;3.20;;;;;;;-2.90;87.41;99106.23;78154;1301;3026837;-73
2024/01/11 05:51:56;;;;;;;7.40;4.00;;;;;;;-2.92;87.12;99090.83;79437;1301;3013630;-66
2024/01/11 05:54:22;;;;;;;6.80;3.70;;;;;;;-3.32;89.14;99104.46;79426;1298;3013192;-68
2024/01/11 05:56:55;;;;;;;7.10;3.50;;;;;;;-3.45;89.88;99093.62;77965;1298;3027825;-71
2024/01/11 05:59:22;;;;;;;;;;;;;;;-3.42;89.83;99091.02;79293;1298;3012183;-69
2024/01/11 06:01:51;;;;;;;6.30;3.50;;;;;;;-3.52;91.77;99079.64;78351;1301;3052145;-68
2024/01/11 06:04:17;;;;;;;6.80;3.20;;;;;;;-3.13;90.89;99078.05;79415;1301;3013299;-71
2024/01/11 06:06:44;;;;;;;4.90;3.30;;;;;;;-2.80;89.73;99068.05;79505;1298;3013813;-72
2024/01/11 06:09:12;;;;;;;5.80;3.60;;;;;;;-2.69;89.69;99060.21;78234;1298;3055662;-69
2024/01/11 06:11:38;;;;;;;6.80;3.70;;;;;;;-2.79;89.21;99059.11;79462;1298;3018726;-68
2024/01/11 06:14:05;;;;;;;8.10;3.60;;;;;;;-3.12;91.03;99077.01;79423;1298;3011606;-70
2024/01/11 06:16:33;;;;;;;5.20;3.50;;;;;;;-3.39;91.43;99059.66;78340;1301;3026212;-71
2024/01/11 06:18:59;;;;;;;5.30;3.20;;;;;;;-3.38;92.15;99055.70;79553;1304;3015278;-69
2024/01/11 06:21:26;;;;;;;7.90;4.40;;;;;;;-3.66;93.13;99048.29;79353;1298;3011857;-67
2024/01/11 06:23:53;;;;;;;7.00;3.70;;;;;;;-3.79;94.11;99044.48;78124;1298;3025846;-65
2024/01/11 06:26:20;;;;;;;7.40;4.00;;;;;;;-3.31;93.74;99031.14;79400;1298;3012917;-71
2024/01/11 06:28:46;;;;;;;8.20;4.40;;;;;;;-3.11;92.17;99032.44;79452;1304;3012943;-68
2024/01/11 06:31:14;;;;;;;8.40;4.50;;;;;;;-3.08;91.20;99034.80;78126;1304;3026361;-69
2024/01/11 06:33:41;;;;;;;11.40;5.70;;;;;;;-3.35;91.13;99037.69;79366;1298;3012887;-66
2024/01/11 06:36:07;;;;;;;8.90;4.70;;;;;;;-3.55;92.67;99024.03;79779;1298;3011436;-72
2024/01/11 06:38:35;;;;;;;8.70;5.60;;;;;;;-3.54;92.69;99026.59;78116;1301;3027249;-70
2024/01/11 06:41:02;;;;;;;11.90;5.80;;;;;;;-3.62;92.90;99030.44;79528;1298;3018519;-72
2024/01/11 06:43:28;;;;;;;9.80;5.40;;;;;;;-3.76;92.94;99019.80;79442;1298;3011638;-69
2024/01/11 06:45:56;;;;;;;9.00;4.80;;;;;;;-3.34;92.60;99017.11;78366;1301;3025728;-72
2024/01/11 06:48:22;;;;;;;10.80;5.20;;;;;;;-3.06;92.03;98996.23;79523;1301;3013115;-72
2024/01/11 06:50:49;;;;;;;8.40;4.90;;;;;;;-2.83;90.40;98999.03;79341;1301;3011889;-75
2024/01/11 06:53:17;;;;;;;13.60;6.70;;;;;;;-3.01;90.43;98997.37;78389;1301;3028900;-71
2024/01/11 06:55:47;;;;;;;11.00;5.00;;;;;;;-3.15;91.01;98987.43;79648;1298;3013790;-71
2024/01/11 06:58:16;;;;;;;9.20;4.60;;;;;;;-3.40;91.66;98995.79;78973;1298;3013667;-72
2024/01/11 07:00:43;;;;;;;10.50;5.70;;;;;;;-3.48;91.78;99004.27;79374;1301;3012911;-70
2024/01/11 07:03:10;;;;;;;9.00;4.70;;;;;;;-3.62;92.68;98990.71;79431;1304;3011695;-67
2024/01/11 07:05:38;;;;;;;13.70;6.80;;;;;;;-3.10;93.18;98986.34;78230;1298;3068272;-73
2024/01/11 07:08:05;;;;;;;9.60;5.20;;;;;;;-2.32;90.39;98985.56;79565;1301;3013434;-70
2024/01/11 07:10:32;;;;;;;12.70;5.60;;;;;;;-2.60;88.20;98969.36;79480;1297;3011826;-72
2024/01/11 07:12:59;;;;;;;12.30;6.30;;;;;;;-2.72;88.83;98968.85;78288;1298;3026566;-71
2024/01/11 07:15:26;;;;;;;9.70;5.10;;;;;;;-3.03;90.10;98963.98;79450;1301;3013659;-70
2024/01/11 07:17:53;;;;;;;10.70;5.90;;;;;;;-3.25;90.78;98960.33;79449;1301;3011725;-71
2024/01/11 07:20:21;;;;;;;14.20;7.30;;;;;;;-3.27;91.91;98962.40;78194;1299;3025997;-71
2024/01/11 07:22:47;;;;;;;9.20;4.70;;;;;;;-3.28;91.57;98965.31;79588;1301;3012908;-67
2024/01/11 07:25:14;;;;;;;13.50;6.30;;;;;;;-2.98;91.60;98936.64;79518;1301;3011934;-69
2024/01/11 07:27:42;;;;;;;11.90;5.90;;;;;;;-2.48;89.92;98944.98;78186;1298;3028619;-69
2024/01/11 07:30:10;;;;;;;12.30;5.20;;;;;;;-2.40;88.75;98929.60;79345;1301;3018809;-70
2024/01/11 07:32:37;;;;;;;11.30;5.80;;;;;;;-2.51;87.90;98938.70;79400;1298;3011668;-68
2024/01/11 07:35:06;;;;;;;14.60;5.90;;;;;;;-2.80;88.26;98938.45;78350;1298;3069118;-70
2024/01/11 07:37:33;;;;;;;21.80;8.30;;;;;;;-3.07;89.44;98941.06;79541;1298;3013434;-70
2024/01/11 07:39:59;;;;;;;14.30;6.20;;;;;;;-3.33;91.15;98912.64;79520;1298;3011688;-68
2024/01/11 07:42:27;;;;;;;8.80;5.20;;;;;;;-3.44;91.55;98915.36;78167;1301;3052057;-70
2024/01/11 07:44:54;;;;;;;10.80;4.30;;;;;;;-3.06;91.64;98907.98;79447;1303;3012996;-67
2024/01/11 07:47:20;;;;;;;15.50;5.60;;;;;;;-2.35;89.27;98909.77;79508;1301;3011427;-72
2024/01/11 07:49:48;;;;;;;19.00;7.90;;;;;;;-2.25;87.11;98898.30;78343;1299;3026541;-70
2024/01/11 07:52:15;;;;;;;13.50;6.40;;;;;;;-2.44;87.11;98892.96;79599;1297;3015726;-71
2024/01/11 07:54:41;;;;;;;20.50;8.30;;;;;;;-2.82;87.93;98889.11;79494;1301;3011627;-70
2024/01/11 07:57:09;;;;;;;19.80;7.80;;;;;;;-2.87;88.51;98903.08;78189;1302;3026614;-70
2024/01/11 07:59:36;;;;;;;13.70;6.40;;;;;;;-3.23;89.35;98902.22;79407;1301;3013610;-70
2024/01/11 08:02:03;;;;;;;13.90;6.50;;;;;;;-3.47;90.86;98874.80;79555;1301;3011649;-69
2024/01/11 08:04:32;;;;;;;7.80;4.20;;;;;;;-3.22;91.32;98879.60;78400;1298;3070219;-70
2024/01/11 08:06:59;;;;;;;11.50;5.70;;;;;;;-2.47;89.70;98878.60;79650;1299;3013570;-71
2024/01/11 08:09:26;;;;;;;8.80;4.60;;;;;;;-2.46;88.07;98866.92;79636;1297;3013994;-68
2024/01/11 08:11:54;;;;;;;9.90;4.80;;;;;;;-2.38;87.70;98879.47;78297;1298;3053322;-71
2024/01/11 08:14:21;;;;;;;11.60;5.80;;;;;;;-2.82;88.21;98872.82;79369;1301;3013417;-69
2024/01/11 08:16:47;;;;;;;10.80;5.90;;;;;;;-3.13;89.88;98874.33;79489;1301;3011717;-69
2024/01/11 08:19:15;;;;;;;12.90;6.30;;;;;;;-3.31;90.74;98870.63;78124;1299;3025195;-68
2024/01/11 08:21:42;;;;;;;17.10;6.20;;;;;;;-3.24;91.27;98875.52;79435;1298;3018745;-70
2024/01/11 08:24:08;;;;;;;16.60;6.80;;;;;;;-3.36;91.35;98881.15;79583;1298;3011531;-72
2024/01/11 08:26:36;;;;;;;18.60;7.00;;;;;;;-3.01;91.57;98867.63;78375;1299;3025960;-70
2024/01/11 08:29:04;;;;;;;14.40;6.70;;;;;;;-2.68;90.45;98843.96;79501;1301;3013057;-74
2024/01/11 08:31:31;;;;;;;13.80;6.40;;;;;;;-1.99;87.22;98855.93;79418;1301;3011562;-70
2024/01/11 08:33:59;;;;;;;19.30;7.30;;;;;;;-2.61;87.57;98851.08;78108;1298;3069663;-68
2024/01/11 08:36:34;;;;;;;20.40;8.00;;;;;;;-2.82;88.74;98835.45;79484;1298;3013471;-67
2024/01/11 08:39:05;;;;;;;20.20;8.30;;;;;;;-3.02;89.40;98835.09;78586;1298;3050397;-71
2024/01/11 08:41:32;;;;;;;14.90;7.80;;;;;;;-3.03;90.33;98830.98;79541;1298;3011776;-69
2024/01/11 08:44:00;;;;;;;16.50;6.80;;;;;;;-3.18;91.25;98808.26;78301;1301;3026608;-69
2024/01/11 08:46:26;;;;;;;13.40;7.20;;;;;;;-2.51;90.54;98806.80;79477;1301;3013253;-68
2024/01/11 08:48:54;;;;;;;15.30;7.00;;;;;;;-2.58;89.14;98804.73;79475;1301;3011916;-69
2024/01/11 08:51:22;;;;;;;17.40;8.70;;;;;;;-2.17;88.73;98796.23;78345;1301;3052026;-72
2024/01/11 08:53:48;;;;;;;17.10;7.90;;;;;;;-2.72;88.74;98792.60;79533;1299;3012926;-68
2024/01/11 08:56:17;;;;;;;17.80;10.00;;;;;;;-2.57;89.29;98800.75;79423;1299;3011925;-68
2024/01/11 08:58:45;;;;;;;16.70;8.90;;;;;;;-2.64;89.07;98782.02;78301;1301;3049684;-68
2024/01/11 09:01:11;;;;;;;19.20;9.60;;;;;;;-2.88;90.03;98776.95;79459;1301;3013052;-65
2024/01/11 09:03:38;;;;;;;24.90;9.50;;;;;;;-2.98;93.01;98761.17;79411;1301;3011892;-68
2024/01/11 09:06:06;;;;;;;15.60;8.50;;;;;;;-3.04;91.84;98760.93;78167;1301;3026848;-70
2024/01/11 09:08:32;;;;;;;10.90;6.20;;;;;;;-2.32;90.27;98764.25;79450;1301;3012660;-68
2024/01/11 09:10:59;;;;;;;18.60;9.60;;;;;;;-2.24;88.97;98752.10;79767;1298;3011799;-69
2024/01/11 09:13:27;;;;;;;23.50;8.60;;;;;;;-2.22;88.85;98774.52;78340;1301;3025099;-69
2024/01/11 09:15:54;;;;;;;17.90;8.80;;;;;;;-2.41;88.65;98757.40;79440;1301;3014332;-67
2024/01/11 09:18:21;;;;;;;15.70;7.40;;;;;;;-2.70;89.54;98746.63;79474;1301;3013203;-69
2024/01/11 09:20:49;;;;;;;26.10;13.40;;;;;;;-2.78;90.45;98740.42;78135;1304;3050270;-68
2024/01/11 09:23:16;;;;;;;16.80;8.50;;;;;;;-2.84;91.26;98742.77;79352;1301;3013738;-72
2024/01/11 09:25:43;;;;;;;17.20;8.40;;;;;;;-2.92;91.63;98737.92;79858;1298;3011614;-67
2024/01/11 09:28:11;;;;;;;24.00;9.30;;;;;;;-2.29;91.29;98738.96;78691;1298;3026401;-70
2024/01/11 09:30:38;;;;;;;17.90;8.20;;;;;;;-1.90;88.46;98742.96;79532;1304;3013917;-69
2024/01/11 09:33:06;;;;;;;16.80;8.60;;;;;;;-1.97;87.79;98745.88;79654;1299;3011569;-68
2024/01/11 09:35:33;;;;;;;14.30;8.10;;;;;;;-1.96;87.83;98734.18;78296;1297;3052055;-71
2024/01/11 09:38:00;;;;;;;15.70;8.70;;;;;;;-2.10;89.24;98745.98;79501;1298;3013752;-68
2024/01/11 09:40:27;;;;;;;16.00;7.30;;;;;;;-2.47;88.50;98743.46;79498;1301;3011691;-69
2024/01/11 09:42:55;;;;;;;10.30;6.40;;;;;;;-2.73;89.68;98748.73;78267;1298;3026647;-70
2024/01/11 09:45:21;;;;;;;14.40;8.00;;;;;;;-2.87;91.66;98718.64;79546;1301;3018360;-68
2024/01/11 09:47:50;;;;;;;17.70;8.40;;;;;;;-1.87;90.41;98712.55;79389;1301;3011627;-70
2024/01/11 09:50:18;;;;;;;16.40;8.90;;;;;;;-1.99;89.35;98694.44;77986;1307;3051306;-68
2024/01/11 09:52:46;;;;;;;22.20;10.50;;;;;;;-1.91;89.09;98687.20;79609;1301;3012922;-67
2024/01/11 09:55:13;;;;;;;21.20;10.10;;;;;;;-2.30;89.45;98711.05;79448;1301;3011680;-68
2024/01/11 09:57:45;;;;;;;21.50;10.10;;;;;;;-2.45;90.74;98698.83;78208;1298;3050106;-70
2024/01/11 10:00:19;;;;;;;19.10;10.20;;;;;;;-2.55;91.25;98700.39;79486;1300;3012371;-67
2024/01/11 10:02:48;;;;;;;;;;;;;;;-2.58;91.86;98697.03;78022;1304;3052185;-67
2024/01/11 10:05:16;;;;;;;14.00;8.10;;;;;;;-1.68;91.42;98706.79;79593;1299;3013227;-68
2024/01/11 10:07:43;;;;;;;16.30;8.30;;;;;;;-1.10;87.03;98711.07;79360;1299;3011968;-68
2024/01/11 10:10:11;;;;;;;17.20;8.40;;;;;;;-1.84;87.26;98711.23;78260;1298;3048167;-70
2024/01/11 10:12:37;;;;;;;14.70;8.10;;;;;;;-2.08;88.89;98685.54;79604;1299;3011666;-68
2024/01/11 10:15:09;;;;;;;20.00;10.50;;;;;;;-1.76;88.00;98702.48;79293;1301;3013189;-69
2024/01/11 10:17:42;;;;;;;14.10;7.30;;;;;;;-2.13;88.12;98682.55;78575;1304;3051513;-68
2024/01/11 10:20:10;;;;;;;15.60;7.50;;;;;;;-2.46;90.03;98687.70;79500;1299;3013100;-67
2024/01/11 10:22:40;;;;;;;15.50;7.50;;;;;;;-2.06;90.63;98687.02;78283;1298;3052398;-68
2024/01/11 10:25:11;;;;;;;15.00;6.50;;;;;;;-1.34;88.28;98683.13;79602;1301;3013312;-69
2024/01/11 10:27:41;;;;;;;12.50;6.00;;;;;;;-1.66;87.35;98649.89;78437;1301;3049904;-67
2024/01/11 10:30:09;;;;;;;14.40;7.80;;;;;;;-1.78;88.12;98654.98;79745;1304;3011926;-69
2024/01/11 10:32:39;;;;;;;13.50;7.40;;;;;;;-1.86;88.45;98655.70;78949;1304;3011719;-66
2024/01/11 10:35:06;;;;;;;18.10;9.30;;;;;;;-1.98;88.67;98642.23;79682;1301;3014895;-66
2024/01/11 10:37:33;;;;;;;19.20;9.80;;;;;;;-2.34;89.99;98637.20;79672;1304;3013087;-68
2024/01/11 10:40:09;;;;;;;17.40;9.40;;;;;;;-2.36;91.17;98627.63;78228;1298;3051501;-67
2024/01/11 10:42:44;;;;;;;19.00;10.00;;;;;;;-1.54;90.14;98612.50;78284;1299;3057137;-68
2024/01/11 10:45:17;;;;;;;17.30;8.80;;;;;;;-1.27;88.06;98597.73;79289;1301;3011864;-69
2024/01/11 10:48:06;;;;;;;15.80;8.10;;;;;;;-1.34;87.37;98596.89;79443;1301;3011989;-66
2024/01/11 10:50:37;;;;;;;27.90;13.90;;;;;;;-1.62;87.25;98589.84;78180;1304;3053570;-73
2024/01/11 10:53:53;;;;;;;26.70;14.10;;;;;;;-1.67;87.53;98592.56;79410;1301;3011623;-68
2024/01/11 10:56:21;;;;;;;25.80;13.40;;;;;;;-2.26;89.64;98592.59;78178;1311;3051898;-69
2024/01/11 10:58:47;;;;;;;16.40;8.60;;;;;;;-2.31;90.60;98571.95;79686;1301;3018770;-70
2024/01/11 11:01:14;;;;;;;24.70;11.90;;;;;;;-1.75;90.49;98571.28;79194;1304;3011581;-67
2024/01/11 11:03:43;;;;;;;20.40;10.40;;;;;;;-1.28;87.70;98576.13;78088;1304;3028030;-70
2024/01/11 11:06:09;;;;;;;26.70;12.90;;;;;;;-1.16;86.10;98564.09;79573;1297;3012990;-69
2024/01/11 11:08:37;;;;;;;22.20;12.10;;;;;;;-1.38;86.50;98540.46;79442;1306;3011616;-69
2024/01/11 11:11:08;;;;;;;29.20;13.60;;;;;;;-1.64;86.68;98549.40;78414;1301;3051182;-70